createdAt,value
2023-04-18T00:00:14.182Z,100556.98
2023-04-18T00:02:44.036Z,100552.06
2023-04-18T00:05:12.673Z,100556.23
2023-04-18T00:07:41.268Z,100552.30
2023-04-18T00:10:09.266Z,100550.55
2023-04-18T00:12:37.390Z,100551.62
2023-04-18T00:15:07.377Z,100547.21
2023-04-18T00:17:38.530Z,100545.66
2023-04-18T00:20:10.396Z,100548.98
2023-04-18T00:22:42.871Z,100544.70
2023-04-18T00:25:11.377Z,100548.14
2023-04-18T00:27:39.397Z,100550.50
2023-04-18T00:30:08.631Z,100547.92
2023-04-18T00:32:38.949Z,100551.61
2023-04-18T00:35:07.129Z,100547.14
2023-04-18T00:37:35.260Z,100543.23
2023-04-18T00:40:05.550Z,100545.84
2023-04-18T00:42:33.816Z,100546.84
2023-04-18T00:45:01.850Z,100549.51
2023-04-18T00:47:30.458Z,100545.39
2023-04-18T00:49:59.411Z,100549.46
2023-04-18T00:52:27.384Z,100548.02
2023-04-18T00:54:55.543Z,100550.89
2023-04-18T00:57:23.474Z,100543.08
2023-04-18T00:59:54.019Z,100549.55
2023-04-18T01:02:23.450Z,100541.64
2023-04-18T01:04:52.262Z,100543.21
2023-04-18T01:07:20.367Z,100541.79
2023-04-18T01:09:48.573Z,100544.36
2023-04-18T01:12:16.707Z,100543.02
2023-04-18T01:14:45.091Z,100539.48
2023-04-18T01:17:14.600Z,100544.09
2023-04-18T01:19:46.862Z,100543.36
2023-04-18T01:22:14.882Z,100543.88
2023-04-18T01:24:42.816Z,100542.45
2023-04-18T01:27:13.467Z,100540.15
2023-04-18T01:29:41.470Z,100537.86
2023-04-18T01:32:09.392Z,100539.75
2023-04-18T01:34:38.159Z,100539.95
2023-04-18T01:37:07.179Z,100537.33
2023-04-18T01:39:35.921Z,100540.23
2023-04-18T01:42:03.849Z,100537.48
2023-04-18T01:44:32.997Z,100542.02
2023-04-18T01:47:00.971Z,100539.10
2023-04-18T01:49:29.037Z,100541.69
2023-04-18T01:51:57.009Z,100538.49
2023-04-18T01:54:24.973Z,100537.92
2023-04-18T01:56:54.080Z,100537.80
2023-04-18T01:59:22.462Z,100533.92
2023-04-18T02:01:50.560Z,100531.89
2023-04-18T02:04:19.026Z,100532.45
2023-04-18T02:06:47.591Z,100530.17
2023-04-18T02:09:16.385Z,100524.22
2023-04-18T02:11:44.342Z,100524.55
2023-04-18T02:14:14.127Z,100522.75
2023-04-18T02:16:42.418Z,100522.76
2023-04-18T02:19:10.374Z,100526.11
2023-04-18T02:21:38.298Z,100529.67
2023-04-18T02:24:06.485Z,100528.81
2023-04-18T02:26:34.469Z,100526.33
2023-04-18T02:29:02.562Z,100526.20
2023-04-18T02:31:30.641Z,100527.71
2023-04-18T02:33:58.916Z,100528.89
2023-04-18T02:36:28.211Z,100526.93
2023-04-18T02:38:56.109Z,100524.52
2023-04-18T02:41:24.144Z,100525.56
2023-04-18T02:43:52.048Z,100528.30
2023-04-18T02:46:20.474Z,100526.29
2023-04-18T02:48:49.430Z,100522.86
2023-04-18T02:51:19.984Z,100528.85
2023-04-18T02:53:48.531Z,100535.82
2023-04-18T02:56:17.275Z,100528.50
2023-04-18T02:59:05.556Z,100531.38
2023-04-18T03:01:45.398Z,100532.11
2023-04-18T03:04:16.510Z,100527.45
2023-04-18T03:06:50.209Z,100524.14
2023-04-18T03:09:18.878Z,100527.73
2023-04-18T03:11:50.572Z,100522.73
2023-04-18T03:14:19.182Z,100525.94
2023-04-18T03:16:53.806Z,100525.67
2023-04-18T03:19:25.875Z,100526.16
2023-04-18T03:21:54.350Z,100527.88
2023-04-18T03:24:23.448Z,100529.48
2023-04-18T03:26:52.632Z,100530.30
2023-04-18T03:29:22.332Z,100529.66
2023-04-18T03:31:50.418Z,100531.18
2023-04-18T03:34:18.340Z,100535.91
2023-04-18T03:36:48.010Z,100536.84
2023-04-18T03:39:16.467Z,100536.69
2023-04-18T03:41:45.164Z,100537.59
2023-04-18T03:44:13.685Z,100536.91
2023-04-18T03:46:42.130Z,100534.95
2023-04-18T03:49:10.450Z,100534.98
2023-04-18T03:51:43.644Z,100538.90
2023-04-18T03:54:11.942Z,100538.29
2023-04-18T03:56:40.296Z,100539.64
2023-04-18T03:59:08.719Z,100538.90
2023-04-18T04:01:37.198Z,100538.64
2023-04-18T04:04:05.366Z,100540.75
2023-04-18T04:06:33.989Z,100537.70
2023-04-18T04:09:01.946Z,100540.00
2023-04-18T04:11:30.206Z,100540.69
2023-04-18T04:13:58.258Z,100535.95
2023-04-18T04:16:30.903Z,100534.41
2023-04-18T04:18:58.933Z,100532.44
2023-04-18T04:21:32.463Z,100536.67
2023-04-18T04:24:01.613Z,100531.11
2023-04-18T04:26:38.729Z,100531.92
2023-04-18T04:29:13.910Z,100530.90
2023-04-18T04:31:42.495Z,100530.38
2023-04-18T04:34:10.444Z,100528.23
2023-04-18T04:36:41.287Z,100530.16
2023-04-18T04:39:11.303Z,100526.04
2023-04-18T04:41:58.055Z,100525.92
2023-04-18T04:44:26.895Z,100526.42
2023-04-18T04:46:56.041Z,100528.52
2023-04-18T04:49:26.915Z,100527.05
2023-04-18T04:51:54.774Z,100528.54
2023-04-18T04:54:23.121Z,100532.82
2023-04-18T04:56:51.803Z,100534.92
2023-04-18T04:59:20.765Z,100536.59
2023-04-18T05:01:48.931Z,100539.38
2023-04-18T05:04:17.336Z,100545.77
2023-04-18T05:06:46.487Z,100546.72
2023-04-18T05:09:14.393Z,100547.80
2023-04-18T05:11:42.405Z,100550.24
2023-04-18T05:14:10.402Z,100554.09
2023-04-18T05:16:38.340Z,100557.54
2023-04-18T05:19:06.273Z,100560.34
2023-04-18T05:21:34.797Z,100556.64
2023-04-18T05:24:02.770Z,100560.00
2023-04-18T05:26:30.838Z,100557.33
2023-04-18T05:28:58.683Z,100557.98
2023-04-18T05:31:26.961Z,100555.97
2023-04-18T05:33:54.930Z,100557.89
2023-04-18T05:36:22.929Z,100557.77
2023-04-18T05:38:53.820Z,100553.43
2023-04-18T05:41:21.698Z,100554.52
2023-04-18T05:43:58.205Z,100555.16
2023-04-18T05:46:32.960Z,100556.70
2023-04-18T05:49:01.337Z,100553.80
2023-04-18T05:51:29.487Z,100552.85
2023-04-18T05:53:57.429Z,100557.30
2023-04-18T05:56:25.331Z,100555.53
2023-04-18T05:58:53.196Z,100549.52
2023-04-18T06:01:21.568Z,100550.57
2023-04-18T06:03:49.720Z,100549.41
2023-04-18T06:06:18.151Z,100550.67
2023-04-18T06:08:46.589Z,100546.25
2023-04-18T06:11:15.474Z,100553.23
2023-04-18T06:13:43.389Z,100553.20
2023-04-18T06:16:12.087Z,100554.02
2023-04-18T06:18:40.119Z,100549.61
2023-04-18T06:21:08.122Z,100545.86
2023-04-18T06:23:36.122Z,100548.63
2023-04-18T06:26:04.066Z,100547.17
2023-04-18T06:28:33.316Z,100547.14
2023-04-18T06:31:01.221Z,100551.76
2023-04-18T06:33:33.442Z,100554.45
2023-04-18T06:36:01.646Z,100557.60
2023-04-18T06:38:30.036Z,100558.38
2023-04-18T06:40:57.953Z,100554.69
2023-04-18T06:43:26.279Z,100551.88
2023-04-18T06:45:54.679Z,100559.40
2023-04-18T06:48:22.866Z,100557.64
2023-04-18T06:50:50.860Z,100557.06
2023-04-18T06:53:18.926Z,100558.23
2023-04-18T06:55:46.783Z,100560.29
2023-04-18T06:58:16.306Z,100561.30
2023-04-18T07:00:44.432Z,100567.41
2023-04-18T07:03:13.675Z,100566.21
2023-04-18T07:05:41.847Z,100564.55
2023-04-18T07:08:09.721Z,100568.42
2023-04-18T07:10:37.603Z,100568.27
2023-04-18T07:13:06.154Z,100564.58
2023-04-18T07:15:37.139Z,100568.56
2023-04-18T07:18:05.252Z,100561.46
2023-04-18T07:20:33.183Z,100560.21
2023-04-18T07:23:01.229Z,100565.41
2023-04-18T07:25:29.387Z,100563.58
2023-04-18T07:27:57.274Z,100561.56
2023-04-18T07:30:25.237Z,100560.76
2023-04-18T07:32:53.383Z,100555.04
2023-04-18T07:35:21.955Z,100555.94
2023-04-18T07:37:49.877Z,100557.39
2023-04-18T07:40:18.061Z,100553.85
2023-04-18T07:42:46.206Z,100550.98
2023-04-18T07:45:15.485Z,100552.95
2023-04-18T07:47:43.433Z,100550.44
2023-04-18T07:50:11.841Z,100552.01
2023-04-18T07:52:39.906Z,100554.05
2023-04-18T07:55:08.493Z,100554.32
2023-04-18T07:57:37.037Z,100549.39
2023-04-18T08:00:06.509Z,100546.90
2023-04-18T08:02:41.762Z,100545.11
2023-04-18T08:05:10.464Z,100538.84
2023-04-18T08:07:38.912Z,100540.96
2023-04-18T08:10:07.414Z,100538.16
2023-04-18T08:12:36.800Z,100539.95
2023-04-18T08:15:05.209Z,100540.23
2023-04-18T08:17:38.890Z,100534.23
2023-04-18T08:20:07.351Z,100533.19
2023-04-18T08:22:44.080Z,100530.05
2023-04-18T08:25:18.406Z,100528.04
2023-04-18T08:27:46.457Z,100525.77
2023-04-18T08:30:14.449Z,100524.73
2023-04-18T08:32:42.336Z,100525.56
2023-04-18T08:35:10.273Z,100523.66
2023-04-18T08:37:38.266Z,100519.16
2023-04-18T08:40:07.501Z,100520.43
2023-04-18T08:42:36.032Z,100519.12
2023-04-18T08:45:05.747Z,100516.84
2023-04-18T08:47:35.391Z,100517.34
2023-04-18T08:50:03.503Z,100512.58
2023-04-18T08:52:32.004Z,100512.29
2023-04-18T08:55:02.750Z,100509.94
2023-04-18T08:57:31.800Z,100511.41
2023-04-18T09:00:05.780Z,100511.93
2023-04-18T09:02:42.607Z,100512.45
2023-04-18T09:05:14.996Z,100507.63
2023-04-18T09:07:43.219Z,100508.79
2023-04-18T09:10:11.251Z,100506.81
2023-04-18T09:12:52.373Z,100503.13
2023-04-18T09:15:23.594Z,100500.36
2023-04-18T09:17:56.483Z,100497.08
2023-04-18T09:20:43.685Z,100495.34
2023-04-18T09:23:14.896Z,100492.88
2023-04-18T09:25:45.069Z,100491.25
2023-04-18T09:28:33.263Z,100487.29
2023-04-18T09:31:11.991Z,100493.67
2023-04-18T09:33:44.818Z,100496.48
2023-04-18T09:36:17.881Z,100495.83
2023-04-18T09:38:46.720Z,100496.95
2023-04-18T09:41:21.243Z,100497.21
2023-04-18T09:43:49.643Z,100499.17
2023-04-18T09:46:18.061Z,100494.37
2023-04-18T09:48:46.272Z,100493.68
2023-04-18T09:51:15.038Z,100493.70
2023-04-18T09:53:50.409Z,100496.80
2023-04-18T09:56:26.263Z,100491.39
2023-04-18T09:59:08.611Z,100487.14
2023-04-18T10:01:36.897Z,100482.99
2023-04-18T10:04:06.883Z,100481.77
2023-04-18T10:06:38.563Z,100478.67
2023-04-18T10:09:07.718Z,100479.91
2023-04-18T10:11:36.481Z,100480.97
2023-04-18T10:14:09.851Z,100480.86
2023-04-18T10:16:38.120Z,100475.86
2023-04-18T10:19:26.174Z,100472.05
2023-04-18T10:21:55.142Z,100475.06
2023-04-18T10:24:45.161Z,100475.60
2023-04-18T10:27:13.374Z,100473.93
2023-04-18T10:29:51.375Z,100470.96
2023-04-18T10:32:20.535Z,100472.25
2023-04-18T10:34:49.303Z,100470.24
2023-04-18T10:37:19.062Z,100473.23
2023-04-18T10:39:52.294Z,100475.02
2023-04-18T10:42:20.772Z,100470.99
2023-04-18T10:45:17.045Z,100473.23
2023-04-18T10:47:45.073Z,100476.29
2023-04-18T10:50:13.310Z,100471.14
2023-04-18T10:52:41.838Z,100475.02
2023-04-18T10:55:28.881Z,100469.43
2023-04-18T10:57:56.935Z,100467.09
2023-04-18T11:00:24.998Z,100469.20
2023-04-18T11:02:55.974Z,100469.92
2023-04-18T11:05:28.231Z,100472.65
2023-04-18T11:07:56.199Z,100471.94
2023-04-18T11:10:26.478Z,100472.29
2023-04-18T11:12:54.956Z,100470.71
2023-04-18T11:15:23.881Z,100469.15
2023-04-18T11:17:56.966Z,100467.02
2023-04-18T11:20:25.711Z,100464.84
2023-04-18T11:22:57.717Z,100461.63
2023-04-18T11:25:28.149Z,100461.09
2023-04-18T11:27:58.880Z,100462.23
2023-04-18T11:30:27.422Z,100457.40
2023-04-18T11:32:56.101Z,100456.17
2023-04-18T11:35:24.222Z,100456.02
2023-04-18T11:37:52.301Z,100452.55
2023-04-18T11:40:21.889Z,100449.94
2023-04-18T11:42:49.912Z,100448.73
2023-04-18T11:45:17.935Z,100446.05
2023-04-18T11:47:46.563Z,100442.59
2023-04-18T11:50:14.498Z,100442.27
2023-04-18T11:52:42.874Z,100445.53
2023-04-18T11:55:25.005Z,100443.55
2023-04-18T11:57:53.787Z,100438.89
2023-04-18T12:00:38.702Z,100437.91
2023-04-18T12:03:12.563Z,100439.49
2023-04-18T12:05:42.394Z,100434.27
2023-04-18T12:08:14.186Z,100435.63
2023-04-18T12:12:03.958Z,100441.49
2023-04-18T12:14:32.422Z,100435.49
2023-04-18T12:17:03.325Z,100441.41
2023-04-18T12:19:32.993Z,100448.34
2023-04-18T12:22:02.147Z,100452.61
2023-04-18T12:24:30.389Z,100447.60
2023-04-18T12:26:59.020Z,100442.16
2023-04-18T12:29:27.548Z,100442.91
2023-04-18T12:31:55.693Z,100439.44
2023-04-18T12:34:23.790Z,100435.01
2023-04-18T12:36:52.398Z,100435.44
2023-04-18T12:39:20.665Z,100432.27
2023-04-18T12:41:49.792Z,100433.86
2023-04-18T12:44:18.356Z,100432.27
2023-04-18T12:46:46.545Z,100432.97
2023-04-18T12:49:14.478Z,100435.05
2023-04-18T12:51:43.576Z,100432.95
2023-04-18T12:54:11.588Z,100439.11
2023-04-18T12:56:39.701Z,100435.59
2023-04-18T12:59:07.601Z,100435.80
2023-04-18T13:01:35.852Z,100436.80
2023-04-18T13:04:11.997Z,100438.08
2023-04-18T13:06:41.598Z,100439.61
2023-04-18T13:09:10.339Z,100438.84
2023-04-18T13:11:38.861Z,100438.45
2023-04-18T13:14:07.106Z,100432.58
2023-04-18T13:16:35.797Z,100434.61
2023-04-18T13:19:03.709Z,100440.58
2023-04-18T13:21:31.800Z,100434.35
2023-04-18T13:23:59.796Z,100430.81
2023-04-18T13:26:27.844Z,100434.55
2023-04-18T13:28:55.926Z,100435.13
2023-04-18T13:31:24.072Z,100435.51
2023-04-18T13:33:52.591Z,100439.55
2023-04-18T13:36:20.744Z,100435.64
2023-04-18T13:38:49.907Z,100429.42
2023-04-18T13:41:17.898Z,100421.61
2023-04-18T13:43:45.825Z,100413.06
2023-04-18T13:46:13.985Z,100409.63
2023-04-18T13:48:42.152Z,100408.17
2023-04-18T13:51:10.078Z,100406.25
2023-04-18T13:53:39.535Z,100414.73
2023-04-18T13:56:07.897Z,100411.35
2023-04-18T13:58:36.467Z,100413.67
2023-04-18T14:01:04.422Z,100411.43
2023-04-18T14:03:34.043Z,100408.19
2023-04-18T14:06:03.498Z,100406.38
2023-04-18T14:08:31.686Z,100405.16
2023-04-18T14:10:59.628Z,100400.34
2023-04-18T14:13:27.569Z,100399.15
2023-04-18T14:15:55.513Z,100395.22
2023-04-18T14:18:24.724Z,100394.20
2023-04-18T14:20:52.670Z,100391.52
2023-04-18T14:23:22.505Z,100388.52
2023-04-18T14:25:50.726Z,100389.02
2023-04-18T14:28:23.667Z,100391.03
2023-04-18T14:30:52.465Z,100383.83
2023-04-18T14:33:20.847Z,100386.58
2023-04-18T14:35:49.113Z,100383.11
2023-04-18T14:38:17.071Z,100385.58
2023-04-18T14:40:45.324Z,100382.02
2023-04-18T14:43:14.018Z,100379.80
2023-04-18T14:45:41.968Z,100376.48
2023-04-18T14:48:10.377Z,100372.27
2023-04-18T14:50:38.904Z,100369.48
2023-04-18T14:53:07.087Z,100367.85
2023-04-18T14:55:35.121Z,100370.04
2023-04-18T14:58:03.050Z,100369.30
2023-04-18T15:00:34.095Z,100363.33
2023-04-18T15:03:02.187Z,100367.29
2023-04-18T15:05:30.406Z,100369.36
2023-04-18T15:07:58.569Z,100363.05
2023-04-18T15:10:26.533Z,100362.90
2023-04-18T15:12:54.470Z,100361.07
2023-04-18T15:15:22.759Z,100361.89
2023-04-18T15:17:50.733Z,100358.28
2023-04-18T15:20:18.971Z,100357.03
2023-04-18T15:22:46.940Z,100353.95
2023-04-18T15:25:16.602Z,100355.05
2023-04-18T15:27:44.535Z,100354.56
2023-04-18T15:30:12.986Z,100359.05
2023-04-18T15:32:42.258Z,100355.71
2023-04-18T15:35:10.571Z,100352.85
2023-04-18T15:37:38.638Z,100353.05
2023-04-18T15:40:09.619Z,100349.59
2023-04-18T15:42:37.665Z,100345.67
2023-04-18T15:45:06.619Z,100350.51
2023-04-18T15:47:34.745Z,100344.81
2023-04-18T15:50:03.534Z,100342.98
2023-04-18T15:52:31.529Z,100340.91
2023-04-18T15:55:00.334Z,100341.59
2023-04-18T15:57:29.838Z,100337.64
2023-04-18T15:59:59.584Z,100339.98
2023-04-18T16:02:27.747Z,100340.45
2023-04-18T16:04:55.786Z,100337.04
2023-04-18T16:07:23.711Z,100333.45
2023-04-18T16:09:51.696Z,100338.27
2023-04-18T16:12:19.639Z,100335.44
2023-04-18T16:14:47.786Z,100336.69
2023-04-18T16:17:15.755Z,100337.67
2023-04-18T16:19:43.923Z,100335.39
2023-04-18T16:22:13.633Z,100333.77
2023-04-18T16:24:42.271Z,100328.89
2023-04-18T16:27:10.444Z,100326.59
2023-04-18T16:29:38.400Z,100330.71
2023-04-18T16:32:06.874Z,100328.00
2023-04-18T16:34:35.843Z,100327.18
2023-04-18T16:37:03.798Z,100325.34
2023-04-18T16:39:31.875Z,100325.08
2023-04-18T16:41:59.846Z,100327.77
2023-04-18T16:44:27.823Z,100325.63
2023-04-18T16:46:56.154Z,100327.08
2023-04-18T16:49:24.228Z,100322.92
2023-04-18T16:51:52.197Z,100324.61
2023-04-18T16:54:20.223Z,100323.48
2023-04-18T16:56:48.482Z,100323.70
2023-04-18T16:59:17.738Z,100322.04
2023-04-18T17:01:45.976Z,100319.63
2023-04-18T17:04:15.438Z,100322.17
2023-04-18T17:06:43.924Z,100321.36
2023-04-18T17:09:14.831Z,100322.15
2023-04-18T17:11:42.989Z,100320.07
2023-04-18T17:14:11.557Z,100319.27
2023-04-18T17:16:40.479Z,100312.59
2023-04-18T17:19:09.158Z,100309.20
2023-04-18T17:21:37.157Z,100307.08
2023-04-18T17:24:06.954Z,100309.09
2023-04-18T17:26:35.791Z,100309.36
2023-04-18T17:29:04.496Z,100308.41
2023-04-18T17:31:32.708Z,100309.16
2023-04-18T17:34:00.943Z,100313.06
2023-04-18T17:36:28.936Z,100311.55
2023-04-18T17:38:59.012Z,100307.61
2023-04-18T17:41:28.655Z,100306.90
2023-04-18T17:43:58.121Z,100305.73
2023-04-18T17:46:26.577Z,100301.95
2023-04-18T17:48:54.456Z,100300.81
2023-04-18T17:51:23.657Z,100297.07
2023-04-18T17:53:51.696Z,100297.57
2023-04-18T17:56:19.732Z,100293.94
2023-04-18T17:58:47.774Z,100293.54
2023-04-18T18:01:20.039Z,100294.99
2023-04-18T18:03:48.390Z,100292.81
2023-04-18T18:06:16.601Z,100287.00
2023-04-18T18:08:44.581Z,100285.19
2023-04-18T18:11:12.708Z,100288.56
2023-04-18T18:13:40.842Z,100283.73
2023-04-18T18:16:09.198Z,100282.77
2023-04-18T18:18:38.195Z,100277.88
2023-04-18T18:21:06.296Z,100276.67
2023-04-18T18:23:34.419Z,100269.50
2023-04-18T18:26:02.724Z,100270.02
2023-04-18T18:28:30.791Z,100274.05
2023-04-18T18:30:58.922Z,100277.05
2023-04-18T18:33:28.023Z,100283.60
2023-04-18T18:35:58.525Z,100277.75
2023-04-18T18:38:26.746Z,100281.98
2023-04-18T18:40:54.630Z,100282.01
2023-04-18T18:43:26.367Z,100260.60
2023-04-18T18:45:54.490Z,100252.44
2023-04-18T18:48:23.581Z,100257.69
2023-04-18T18:50:53.873Z,100251.04
2023-04-18T18:53:22.096Z,100248.73
2023-04-18T18:55:50.752Z,100238.58
2023-04-18T18:58:18.870Z,100235.26
2023-04-18T19:00:47.136Z,100239.15
2023-04-18T19:03:18.403Z,100236.14
2023-04-18T19:05:46.734Z,100230.86
2023-04-18T19:08:14.963Z,100229.51
2023-04-18T19:10:43.338Z,100228.44
2023-04-18T19:13:11.360Z,100225.35
2023-04-18T19:15:39.291Z,100226.19
2023-04-18T19:18:09.690Z,100221.27
2023-04-18T19:20:40.331Z,100219.80
2023-04-18T19:23:08.472Z,100214.20
2023-04-18T19:25:38.549Z,100213.09
2023-04-18T19:28:10.020Z,100210.79
2023-04-18T19:30:38.076Z,100206.36
2023-04-18T19:33:06.172Z,100205.17
2023-04-18T19:35:35.887Z,100202.50
2023-04-18T19:38:05.727Z,100196.22
2023-04-18T19:40:33.641Z,100196.09
2023-04-18T19:43:01.572Z,100196.77
2023-04-18T19:45:30.524Z,100194.70
2023-04-18T19:47:58.719Z,100192.98
2023-04-18T19:50:26.770Z,100193.48
2023-04-18T19:52:54.802Z,100190.66
2023-04-18T19:55:22.998Z,100188.04
2023-04-18T19:57:54.208Z,100187.73
2023-04-18T20:00:22.228Z,100183.17
2023-04-18T20:02:53.644Z,100181.50
2023-04-18T20:05:22.015Z,100183.30
2023-04-18T20:07:50.243Z,100178.41
2023-04-18T20:10:21.067Z,100178.90
2023-04-18T20:12:50.140Z,100176.42
2023-04-18T20:15:18.322Z,100175.95
2023-04-18T20:17:48.682Z,100174.75
2023-04-18T20:20:16.644Z,100174.23
2023-04-18T20:22:46.999Z,100174.40
2023-04-18T20:25:15.023Z,100174.32
2023-04-18T20:27:43.119Z,100168.55
2023-04-18T20:30:11.690Z,100168.77
2023-04-18T20:32:40.649Z,100170.77
2023-04-18T20:35:09.440Z,100165.65
2023-04-18T20:37:37.572Z,100167.15
2023-04-18T20:40:09.025Z,100161.20
2023-04-18T20:42:38.678Z,100160.98
2023-04-18T20:45:10.871Z,100153.66
2023-04-18T20:47:41.263Z,100149.98
2023-04-18T20:50:10.146Z,100148.34
2023-04-18T20:52:38.491Z,100143.79
2023-04-18T20:55:06.559Z,100141.43
2023-04-18T20:57:35.926Z,100147.31
2023-04-18T21:00:06.716Z,100142.64
2023-04-18T21:02:35.039Z,100140.36
2023-04-18T21:05:03.186Z,100138.20
2023-04-18T21:07:32.353Z,100131.02
2023-04-18T21:10:00.391Z,100135.20
2023-04-18T21:12:28.471Z,100135.89
2023-04-18T21:14:56.445Z,100138.13
2023-04-18T21:17:27.789Z,100131.02
2023-04-18T21:19:55.875Z,100129.21
2023-04-18T21:22:23.833Z,100126.48
2023-04-18T21:24:51.745Z,100123.42
2023-04-18T21:27:19.658Z,100124.39
2023-04-18T21:29:47.963Z,100126.74
2023-04-18T21:32:15.932Z,100122.84
2023-04-18T21:34:45.728Z,100130.02
2023-04-18T21:37:13.660Z,100129.33
2023-04-18T21:39:42.586Z,100122.38
2023-04-18T21:42:10.926Z,100122.00
2023-04-18T21:44:38.783Z,100120.95
2023-04-18T21:47:06.704Z,100120.42
2023-04-18T21:49:35.062Z,100114.83
2023-04-18T21:52:03.003Z,100115.58
2023-04-18T21:54:31.139Z,100112.68
2023-04-18T21:56:59.104Z,100111.70
2023-04-18T21:59:30.656Z,100103.56
2023-04-18T22:01:59.824Z,100101.21
2023-04-18T22:04:31.464Z,100099.86
2023-04-18T22:06:59.415Z,100097.98
2023-04-18T22:09:27.277Z,100099.86
2023-04-18T22:11:56.960Z,100097.64
2023-04-18T22:14:25.011Z,100088.66
2023-04-18T22:16:54.095Z,100097.05
2023-04-18T22:19:22.314Z,100096.95
2023-04-18T22:21:50.459Z,100096.27
2023-04-18T22:24:19.690Z,100093.38
2023-04-18T22:26:47.973Z,100093.08
2023-04-18T22:29:16.035Z,100089.02
2023-04-18T22:31:45.321Z,100091.30
2023-04-18T22:34:13.785Z,100093.48
2023-04-18T22:36:42.922Z,100090.59
2023-04-18T22:39:12.254Z,100088.91
2023-04-18T22:41:40.497Z,100085.26
2023-04-18T22:44:08.433Z,100086.85
2023-04-18T22:46:39.303Z,100084.98
2023-04-18T22:49:07.513Z,100081.67
2023-04-18T22:51:35.726Z,100080.52
2023-04-18T22:54:03.749Z,100077.39
2023-04-18T22:56:31.894Z,100076.78
2023-04-18T22:59:00.046Z,100072.95
2023-04-18T23:01:28.353Z,100074.67
2023-04-18T23:03:56.813Z,100066.89
2023-04-18T23:06:24.991Z,100069.64
2023-04-18T23:08:53.050Z,100062.61
2023-04-18T23:11:21.595Z,100063.23
2023-04-18T23:13:49.677Z,100063.20
2023-04-18T23:16:17.642Z,100056.38
2023-04-18T23:18:45.698Z,100056.73
2023-04-18T23:21:13.564Z,100051.47
2023-04-18T23:23:41.544Z,100052.27
2023-04-18T23:26:15.986Z,100047.04
2023-04-18T23:28:44.345Z,100042.48
2023-04-18T23:31:12.717Z,100041.02
2023-04-18T23:33:40.902Z,100041.78
2023-04-18T23:36:09.153Z,100038.02
2023-04-18T23:38:38.410Z,100034.96
2023-04-18T23:41:06.501Z,100033.93
2023-04-18T23:43:35.485Z,100034.29
2023-04-18T23:46:04.064Z,100034.64
2023-04-18T23:48:32.324Z,100034.19
2023-04-18T23:51:00.979Z,100032.25
2023-04-18T23:53:29.116Z,100035.10
2023-04-18T23:55:57.021Z,100037.04
2023-04-18T23:58:26.463Z,100034.79
